METAR Data
IDs: Format: Raw Decoded Include TAF

Data at: 2144 UTC 18 Sep 2018

KODO 182053Z AUTO 18012KT 10SM FEW041 BKN055 29/18 A2999 RMK AO2 SLP107 T02940183 58025
KODO 181953Z AUTO 17010KT 10SM FEW037 BKN055 28/19 A3001 RMK AO2 SLP117 T02830189
KODO 181853Z AUTO 17013G18KT 10SM SCT032 SCT041 28/19 A3004 RMK AO2 SLP126 T02830194
KODO 181753Z AUTO 17012KT 10SM FEW029 BKN043 27/19 A3007 RMK AO2 SLP135 T02720194 10272 20217 58005
KODO 181653Z AUTO 18014G20KT 10SM FEW022 BKN038 27/19 A3009 RMK AO2 SLP143 T02670194
KODO 181646Z AUTO 17013KT 10SM FEW022 BKN038 26/19 A3009 RMK AO2 T02610194
KODO 181605Z AUTO 18010KT 10SM BKN018 BKN030 OVC037 24/20 A3009 RMK AO2 T02440200
KODO 181553Z AUTO 17012KT 10SM FEW019 SCT030 OVC037 24/19 A3009 RMK AO2 SLP146 T02440194
KODO 181533Z AUTO 17013KT 10SM FEW017 OVC033 24/20 A3009 RMK AO2 T02440200
KODO 181507Z AUTO 18010KT 10SM BKN015 BKN020 OVC028 23/20 A3008 RMK AO2 T02330200
KODO 181453Z AUTO 17011KT 10SM BKN013 BKN020 OVC028 23/20 A3008 RMK AO2 SLP144 T02330200 51004
KODO 181436Z AUTO 18009KT 10SM BKN013 OVC028 23/20 A3008 RMK AO2 T02280200
KODO 181353Z AUTO 17009KT 10SM FEW011 OVC026 22/20 A3008 RMK AO2 SLP144 T02220200
KODO 181313Z AUTO 16006KT 10SM SCT011 BKN024 22/20 A3008 RMK AO2 T02170200
KODO 181253Z AUTO 17006KT 10SM BKN011 BKN029 22/20 A3007 RMK AO2 SLP140 T02170200
KODO 181249Z AUTO 17006KT 10SM SCT011 BKN029 22/20 A3007 RMK AO2
KODO 181241Z AUTO 17007KT 10SM SCT010 BKN031 22/20 A3007 RMK AO2 T02170200
KODO 181153Z AUTO 16007KT 10SM SCT011 SCT019 OVC027 22/20 A3006 RMK AO2 SLP137 T02170200 10222 20211 53002
KODO 181148Z AUTO 17008KT 10SM FEW009 SCT013 OVC027 22/20 A3006 RMK AO2
KODO 181144Z AUTO 17006KT 10SM BKN011 BKN018 OVC025 22/20 A3006 RMK AO2 T02170200
KODO 181053Z AUTO 17009KT 10SM SCT012 OVC020 22/20 A3005 RMK AO2 SLP132 T02220200
KODO 180953Z AUTO 17010KT 10SM BKN010 22/19 A3005 RMK AO2 SLP131 T02170194
KODO 180927Z AUTO 19009KT 10SM OVC010 22/19 A3005 RMK AO2 T02170194
KODO 180917Z AUTO 17007KT 10SM OVC009 22/19 A3005 RMK AO2 T02170194
KODO 180853Z AUTO 18009KT 10SM OVC011 22/19 A3006 RMK AO2 CIG 009V014 SLP133 T02170194 58003
KODO 180841Z AUTO 18009KT 10SM BKN012 22/19 A3006 RMK AO2 T02170194
KODO 180753Z AUTO 17007KT 10SM CLR 21/19 A3007 RMK AO2 SLP136 T02110194
KODO 180653Z AUTO 17009KT 10SM CLR 22/19 A3007 RMK AO2 SLP136 T02170194
KODO 180553Z AUTO 17009KT 10SM CLR 22/19 A3007 RMK AO2 SLP139 T02220194 10261 20222 402830194 51005
KODO 180453Z AUTO 16011KT 10SM CLR 22/19 A3007 RMK AO2 SLP138 T02220189
KODO 180353Z AUTO 16006KT 10SM CLR 23/18 A3007 RMK AO2 SLP138 T02330183 TSNO
KODO 180253Z AUTO 17007KT 10SM CLR 24/18 A3005 RMK AO2 SLP134 T02390183 53008 TSNO
KODO 180153Z AUTO 16004KT 10SM CLR 24/19 A3004 RMK AO2 SLP129 T02390189
KODO 180053Z AUTO 16006KT 10SM FEW060 26/18 A3003 RMK AO2 SLP126 T02560183
KODO 172353Z AUTO 16008KT 10SM OVC055 26/19 A3002 RMK AO2 SLP124 T02610189 10283 20239 55005
KODO 172253Z AUTO 16011KT 10SM OVC070 27/17 A3002 RMK AO2 SLP124 T02670172
KODO 172153Z AUTO 16011KT 10SM OVC075 27/18 A3003 RMK AO2 SLP126 T02670183
KODO 172053Z AUTO 15012KT 10SM SCT034 BKN044 OVC065 27/19 A3004 RMK AO2 SLP129 T02670189 56019
KODO 171953Z AUTO 16006KT 10SM FEW037 FEW055 28/17 A3006 RMK AO2 SLP134 T02780172
KODO 171853Z AUTO 18011KT 10SM FEW030 SCT050 27/18 A3008 RMK AO2 SLP143 T02720183
KODO 171753Z AUTO 14007KT 10SM SCT020 SCT026 OVC050 25/19 A3010 RMK AO2 SLP151 T02500194 10250 20206 50002
KODO 171725Z AUTO 18007KT 150V210 10SM SCT024 BKN030 OVC050 25/19 A3011 RMK AO2 T02500194
KODO 171653Z AUTO 17008KT 10SM BKN019 BKN024 OVC050 24/19 A3011 RMK AO2 SLP154 T02440194
KODO 171553Z AUTO 16006KT 10SM SCT015 BKN020 OVC049 23/19 A3011 RMK AO2 SLP154 T02330189
KODO 171528Z AUTO 16006KT 10SM SCT014 BKN020 BKN047 23/19 A3010 RMK AO2 T02280189
KODO 171520Z AUTO 14006KT 10SM BKN014 BKN046 23/19 A3010 RMK AO2 T02280189
KODO 171453Z AUTO 13004KT 10SM FEW013 SCT034 SCT043 22/19 A3009 RMK AO2 SLP149 T02220189 51007
KODO 171448Z AUTO 15005KT 10SM FEW013 SCT020 SCT043 23/19 A3009 RMK AO2
KODO 171419Z AUTO 16005KT 10SM SCT012 BKN021 23/19 A3009 RMK AO2 T02280194
KODO 171406Z AUTO 16003KT 10SM SCT021 22/19 A3008 RMK AO2 T02220189
KODO 171353Z AUTO 13003KT 10SM BKN020 22/19 A3008 RMK AO2 SLP145 T02170189
KODO 171253Z AUTO 15003KT 10SM OVC015 21/19 A3007 RMK AO2 SLP141 T02060194
KODO 171245Z AUTO 15003KT 10SM SCT010 OVC015 21/19 A3007 RMK AO2 T02060194
KODO 171153Z AUTO 15004KT 10SM OVC008 21/19 A3006 RMK AO2 CIG 007V012 SLP136 70006 T02060194 10211 20194 53003
KODO 171126Z AUTO 18003KT 10SM OVC005 21/19 A3006 RMK AO2 CIG 004V008 T02060194
KODO 171106Z AUTO 17004KT 8SM OVC004 20/19 A3005 RMK AO2 T02000194
KODO 171053Z AUTO 15003KT 10SM OVC005 20/19 A3005 RMK AO2 CIG 004V009 SLP132 T02000189
KODO 170953Z AUTO 00000KT 10SM BKN007 BKN011 19/18 A3005 RMK AO2 SLP134 T01940183